Time;durP1;ratioP1;P1;durP2;ratioP2;P2;SDS_P1;SDS_P2;PMS_P1;PMS_P2;Temp;Humidity;BMP_temperature;BMP_pressure;BME280_temperature;BME280_humidity;BME280_pressure;Samples;Min_cycle;Max_cycle;Signal;HPM_P1;HPM_P2
2023/07/19 00:00:42;;;;;;;8.38;6.40;;;;;;;21.44;100.00;96460.59;5042108;28;20210;-68
2023/07/19 00:03:08;;;;;;;8.13;6.57;;;;;;;21.42;100.00;96458.16;5042630;28;20200;-66
2023/07/19 00:05:36;;;;;;;9.63;6.07;;;;;;;21.43;100.00;96453.59;5042015;28;21619;-65
2023/07/19 00:08:05;;;;;;;8.18;7.05;;;;;;;21.41;100.00;96461.03;5041623;28;20226;-64
2023/07/19 00:10:31;;;;;;;6.93;6.18;;;;;;;21.40;100.00;96454.84;5042590;28;20616;-67
2023/07/19 00:13:00;;;;;;;8.00;6.32;;;;;;;21.39;100.00;96450.50;5041265;28;20829;-65
2023/07/19 00:15:30;;;;;;;12.13;6.90;;;;;;;21.40;100.00;96456.72;5041523;28;20226;-65
2023/07/19 00:17:56;;;;;;;7.07;6.38;;;;;;;21.40;100.00;96449.44;5042030;28;20204;-65
2023/07/19 00:20:23;;;;;;;9.57;6.55;;;;;;;21.38;100.00;96446.16;5041993;28;20194;-65
2023/07/19 00:22:49;;;;;;;7.47;6.45;;;;;;;21.36;100.00;96456.31;5041387;28;20566;-65
2023/07/19 00:25:16;;;;;;;6.88;6.25;;;;;;;21.35;100.00;96451.97;5042273;28;20551;-65
2023/07/19 00:27:42;;;;;;;6.93;6.20;;;;;;;21.38;100.00;96450.72;5041310;28;20543;-63
2023/07/19 00:30:10;;;;;;;7.82;6.30;;;;;;;21.36;100.00;96453.63;5041810;28;20210;-64
2023/07/19 00:32:37;;;;;;;7.90;6.80;;;;;;;21.37;100.00;96457.97;5041651;28;20203;-66
2023/07/19 00:35:05;;;;;;;9.20;6.85;;;;;;;21.37;100.00;96459.81;5042270;28;20698;-67
2023/07/19 00:37:33;;;;;;;8.68;6.55;;;;;;;21.35;100.00;96462.75;5041628;28;20214;-66
2023/07/19 00:39:59;;;;;;;9.90;7.03;;;;;;;21.35;100.00;96454.66;5041305;28;20215;-65
2023/07/19 00:42:26;;;;;;;7.35;6.63;;;;;;;21.34;100.00;96453.84;5041028;28;20268;-65
2023/07/19 00:44:54;;;;;;;8.93;7.22;;;;;;;21.30;100.00;96455.31;5040699;28;20213;-65
2023/07/19 00:47:20;;;;;;;7.22;6.53;;;;;;;21.31;100.00;96458.81;5041096;28;20227;-68
2023/07/19 00:49:49;;;;;;;8.82;6.80;;;;;;;21.29;100.00;96458.22;5041107;28;20221;-65
2023/07/19 00:52:17;;;;;;;8.35;6.82;;;;;;;21.28;100.00;96456.56;5041168;28;20281;-65
2023/07/19 00:54:45;;;;;;;6.40;5.80;;;;;;;21.27;100.00;96465.66;5041283;28;20204;-65
2023/07/19 00:57:12;;;;;;;6.88;6.32;;;;;;;21.26;100.00;96466.69;5041511;28;20281;-64
2023/07/19 00:59:40;;;;;;;6.95;6.32;;;;;;;21.26;100.00;96466.69;5040931;28;20207;-67
2023/07/19 01:02:06;;;;;;;9.57;6.80;;;;;;;21.27;100.00;96466.50;5041372;28;20212;-67
2023/07/19 01:04:33;;;;;;;7.75;6.85;;;;;;;21.25;100.00;96465.06;5041307;28;20199;-65
2023/07/19 01:07:05;;;;;;;7.70;6.90;;;;;;;21.20;100.00;96460.31;5041289;28;20222;-65
2023/07/19 01:09:32;;;;;;;7.72;6.55;;;;;;;21.22;100.00;96465.50;5053441;28;20223;-69
2023/07/19 01:11:59;;;;;;;8.90;6.75;;;;;;;21.16;100.00;96459.09;5059898;28;20211;-68
2023/07/19 01:14:26;;;;;;;8.55;6.80;;;;;;;21.16;100.00;96459.09;5054302;28;20539;-64
2023/07/19 01:16:53;;;;;;;7.10;6.40;;;;;;;21.17;100.00;96454.53;5043970;28;20251;-64
2023/07/19 01:19:20;;;;;;;7.75;6.80;;;;;;;21.13;100.00;96454.16;5043662;28;20210;-67
2023/07/19 01:21:47;;;;;;;11.45;7.68;;;;;;;21.10;100.00;96453.72;5042352;28;20214;-66
2023/07/19 01:24:15;;;;;;;8.25;6.82;;;;;;;21.11;100.00;96452.72;5042605;28;20237;-65
2023/07/19 01:26:44;;;;;;;8.25;6.30;;;;;;;21.09;100.00;96457.44;5042654;28;20651;-64
2023/07/19 01:29:11;;;;;;;8.20;7.38;;;;;;;21.03;100.00;96460.97;5041693;28;20199;-65
2023/07/19 01:31:37;;;;;;;7.53;6.78;;;;;;;21.01;100.00;96460.38;5042369;28;20218;-65
2023/07/19 01:34:04;;;;;;;7.72;6.78;;;;;;;21.03;100.00;96453.75;5040927;28;20207;-66
2023/07/19 01:36:30;;;;;;;7.70;6.55;;;;;;;21.04;100.00;96459.94;5042892;28;20200;-65
2023/07/19 01:38:57;;;;;;;8.40;6.80;;;;;;;21.00;100.00;96456.03;5042704;28;20200;-65
2023/07/19 01:41:25;;;;;;;9.23;6.68;;;;;;;20.95;100.00;96450.47;5046716;28;20214;-66
2023/07/19 01:43:51;;;;;;;8.07;6.20;;;;;;;20.96;100.00;96452.13;5046704;28;20200;-67
2023/07/19 01:46:18;;;;;;;8.23;6.72;;;;;;;20.93;100.00;96455.22;5047134;28;20257;-66
2023/07/19 01:48:45;;;;;;;8.90;6.95;;;;;;;20.91;100.00;96451.91;5046437;28;20275;-65
2023/07/19 01:51:13;;;;;;;7.95;7.15;;;;;;;20.89;100.00;96451.31;5045985;28;20217;-66
2023/07/19 01:53:42;;;;;;;7.50;6.90;;;;;;;20.89;100.00;96454.00;5044938;28;20218;-66
2023/07/19 01:56:08;;;;;;;7.57;6.85;;;;;;;20.92;100.00;96467.84;5045863;28;20754;-65
2023/07/19 01:58:36;;;;;;;9.77;7.28;;;;;;;20.93;100.00;96457.91;5044174;28;20723;-68
2023/07/19 02:01:03;;;;;;;7.68;6.88;;;;;;;20.89;100.00;96456.69;5044909;28;20203;-66
2023/07/19 02:03:29;;;;;;;8.93;7.00;;;;;;;20.88;100.00;96458.53;5044719;28;20265;-65
2023/07/19 02:05:58;;;;;;;7.13;6.53;;;;;;;20.91;100.00;96460.81;5044553;28;20214;-65
2023/07/19 02:08:26;;;;;;;7.35;6.60;;;;;;;20.92;100.00;96461.63;5044279;28;20567;-65
2023/07/19 02:10:54;;;;;;;7.72;7.03;;;;;;;20.91;100.00;96462.66;5044257;28;20276;-65
2023/07/19 02:13:20;;;;;;;7.97;7.18;;;;;;;20.94;100.00;96470.34;5044738;28;20231;-68
2023/07/19 02:15:49;;;;;;;8.93;6.95;;;;;;;20.94;100.00;96467.66;5047277;28;20239;-65
2023/07/19 02:18:16;;;;;;;8.00;7.20;;;;;;;20.96;100.00;96468.25;5046682;28;20321;-66
2023/07/19 02:20:46;;;;;;;7.95;7.18;;;;;;;20.99;100.00;96471.34;5044274;28;20222;-65
2023/07/19 02:23:12;;;;;;;8.18;7.35;;;;;;;21.00;100.00;96466.78;5042813;28;20211;-65
2023/07/19 02:25:41;;;;;;;9.15;7.13;;;;;;;21.00;100.00;96464.94;5043864;28;20636;-64
2023/07/19 02:28:07;;;;;;;7.47;6.72;;;;;;;21.01;100.00;96469.25;5043171;28;20680;-65
2023/07/19 02:30:34;;;;;;;11.00;6.95;;;;;;;21.03;100.00;96463.66;5043862;28;20296;-67
2023/07/19 02:33:02;;;;;;;8.82;7.30;;;;;;;21.04;100.00;96471.53;5044915;28;20203;-65
2023/07/19 02:35:28;;;;;;;8.25;7.40;;;;;;;21.07;100.00;96471.09;5044433;28;20216;-65
2023/07/19 02:37:56;;;;;;;8.68;7.32;;;;;;;21.05;100.00;96461.59;5044476;28;20220;-64
2023/07/19 02:40:23;;;;;;;8.00;7.20;;;;;;;21.07;100.00;96465.72;5044415;28;20200;-64
2023/07/19 02:42:49;;;;;;;8.10;6.85;;;;;;;21.08;100.00;96463.88;5043994;28;20207;-64
2023/07/19 02:45:15;;;;;;;7.25;6.53;;;;;;;21.09;100.00;96468.19;5043748;28;20265;-66
2023/07/19 02:47:42;;;;;;;7.75;7.05;;;;;;;21.11;100.00;96464.31;5044440;28;20235;-64
2023/07/19 02:50:11;;;;;;;7.95;7.22;;;;;;;21.13;100.00;96467.59;5043800;28;20203;-68
2023/07/19 02:52:37;;;;;;;7.50;6.80;;;;;;;21.14;100.00;96471.94;5042963;28;20346;-65
2023/07/19 02:55:05;;;;;;;8.95;7.20;;;;;;;21.13;100.00;96469.44;5043782;28;20218;-65
2023/07/19 02:57:33;;;;;;;8.30;7.38;;;;;;;21.14;100.00;96471.94;5043863;28;20203;-67
2023/07/19 03:00:02;;;;;;;8.07;7.28;;;;;;;21.16;100.00;96479.78;5043669;28;20208;-65
2023/07/19 03:02:29;;;;;;;8.35;7.25;;;;;;;21.16;100.00;96490.53;5044270;28;20211;-68
2023/07/19 03:04:56;;;;;;;8.05;7.07;;;;;;;21.15;100.00;96484.31;5043780;28;20272;-65
2023/07/19 03:07:24;;;;;;;8.82;6.80;;;;;;;21.17;100.00;96473.38;5043514;28;20212;-66
2023/07/19 03:09:50;;;;;;;7.70;7.10;;;;;;;21.18;100.00;96472.34;5043503;28;20286;-64
2023/07/19 03:12:17;;;;;;;10.20;7.93;;;;;;;21.16;100.00;96480.59;5043719;28;20218;-66
2023/07/19 03:14:43;;;;;;;8.25;7.30;;;;;;;21.18;100.00;96485.78;5042627;28;20203;-65
2023/07/19 03:17:10;;;;;;;10.45;7.35;;;;;;;21.20;100.00;96478.31;5044531;28;20242;-65
2023/07/19 03:19:36;;;;;;;8.18;7.18;;;;;;;21.19;100.00;96484.72;5051168;28;20195;-67
2023/07/19 03:22:03;;;;;;;8.25;7.15;;;;;;;21.18;100.00;96489.31;5047060;28;20207;-66
2023/07/19 03:24:31;;;;;;;8.88;8.05;;;;;;;21.19;100.00;96484.72;5045367;28;20211;-64
2023/07/19 03:26:58;;;;;;;8.60;7.40;;;;;;;21.19;100.00;96496.31;5046293;28;20211;-66
2023/07/19 03:29:26;;;;;;;7.97;7.20;;;;;;;21.21;100.00;96490.72;5045195;28;20306;-67
2023/07/19 03:31:52;;;;;;;8.45;7.43;;;;;;;21.23;100.00;96497.53;5045193;28;20204;-66
2023/07/19 03:34:19;;;;;;;7.65;6.90;;;;;;;21.21;100.00;96494.25;5045349;28;20204;-67
2023/07/19 03:36:45;;;;;;;8.48;6.85;;;;;;;21.23;100.00;96491.34;5044479;28;20303;-66
2023/07/19 03:39:12;;;;;;;8.48;7.00;;;;;;;21.21;100.00;96496.13;5044347;28;20219;-65
2023/07/19 03:41:40;;;;;;;8.23;7.20;;;;;;;21.20;100.00;96497.97;5044065;28;20195;-65
2023/07/19 03:44:06;;;;;;;8.13;7.32;;;;;;;21.20;100.00;96502.53;5043922;28;20206;-66
2023/07/19 03:46:35;;;;;;;13.70;7.38;;;;;;;21.20;100.00;96507.91;5043651;28;20234;-65
2023/07/19 03:49:02;;;;;;;8.13;7.30;;;;;;;21.19;100.00;96504.38;5042724;28;20239;-64
2023/07/19 03:51:29;;;;;;;9.00;7.50;;;;;;;21.19;100.00;96506.25;5043274;28;20240;-66
2023/07/19 03:53:56;;;;;;;9.05;7.78;;;;;;;21.21;100.00;96504.19;5051216;28;20206;-69
2023/07/19 03:56:23;;;;;;;9.02;8.07;;;;;;;21.21;100.00;96514.94;5051966;28;20208;-67
2023/07/19 03:58:50;;;;;;;8.23;7.38;;;;;;;21.23;100.00;96512.84;5048204;28;20575;-67
2023/07/19 04:01:18;;;;;;;9.50;7.30;;;;;;;21.24;100.00;96515.34;5041432;28;20661;-66
2023/07/19 04:03:45;;;;;;;9.07;7.40;;;;;;;21.25;100.00;96513.47;5042634;28;20211;-66
2023/07/19 04:06:11;;;;;;;8.23;7.18;;;;;;;21.27;100.00;96516.78;5042776;28;20227;-65
2023/07/19 04:08:38;;;;;;;8.27;6.93;;;;;;;21.24;100.00;96506.44;5041924;28;20223;-67
2023/07/19 04:11:05;;;;;;;9.98;7.30;;;;;;;21.20;100.00;96507.91;5042194;28;20219;-65
2023/07/19 04:13:32;;;;;;;10.48;7.75;;;;;;;21.21;100.00;96523.00;5041660;28;20200;-64
2023/07/19 04:16:00;;;;;;;8.02;7.22;;;;;;;21.19;100.00;96517.00;5041948;28;20680;-66
2023/07/19 04:18:27;;;;;;;9.68;7.43;;;;;;;21.19;100.00;96522.38;5041724;28;20710;-67
2023/07/19 04:20:55;;;;;;;8.43;7.53;;;;;;;21.20;100.00;96524.88;5042392;28;20548;-66
2023/07/19 04:23:21;;;;;;;7.63;6.90;;;;;;;21.21;100.00;96526.53;5041324;28;20299;-67
2023/07/19 04:25:49;;;;;;;7.93;6.75;;;;;;;21.21;100.00;96520.31;5041489;28;20203;-65
2023/07/19 04:28:15;;;;;;;8.82;7.97;;;;;;;21.20;100.00;96516.81;5041067;28;20230;-65
2023/07/19 04:30:42;;;;;;;9.48;7.55;;;;;;;21.24;100.00;96519.88;5041652;28;20196;-64
2023/07/19 04:33:10;;;;;;;8.52;7.60;;;;;;;21.25;100.00;96522.38;5041106;28;20242;-66
2023/07/19 04:35:36;;;;;;;8.57;7.70;;;;;;;21.27;100.00;96528.38;5041779;28;20650;-68
2023/07/19 04:38:04;;;;;;;9.15;7.22;;;;;;;21.30;100.00;96524.41;5041880;28;20214;-68
2023/07/19 04:40:31;;;;;;;8.02;7.38;;;;;;;21.32;100.00;96519.66;5041280;28;20204;-66
2023/07/19 04:42:58;;;;;;;8.73;7.47;;;;;;;21.36;100.00;96528.13;5041060;28;20211;-66
2023/07/19 04:45:25;;;;;;;8.18;7.47;;;;;;;21.42;100.00;96527.28;5041310;28;20211;-67
2023/07/19 04:47:51;;;;;;;8.00;7.18;;;;;;;21.44;100.00;96531.38;5040644;28;20207;-65
2023/07/19 04:50:19;;;;;;;10.13;7.97;;;;;;;21.51;100.00;96537.56;5041331;28;20203;-67
2023/07/19 04:52:46;;;;;;;9.15;8.32;;;;;;;21.53;100.00;96532.81;5040959;28;20214;-66
2023/07/19 04:55:12;;;;;;;8.27;7.53;;;;;;;21.58;100.00;96530.28;5040943;28;20199;-64
2023/07/19 04:57:39;;;;;;;8.60;7.80;;;;;;;21.63;100.00;96532.34;5040985;28;20196;-64
2023/07/19 05:00:11;;;;;;;7.80;7.10;;;;;;;21.65;100.00;96522.19;5039754;28;20211;-64
2023/07/19 05:02:38;;;;;;;8.23;7.43;;;;;;;21.69;100.00;96526.09;5040907;28;20215;-64
2023/07/19 05:05:05;;;;;;;8.75;7.97;;;;;;;21.71;100.00;96524.88;5041125;28;20376;-65
2023/07/19 05:07:34;;;;;;;8.82;8.05;;;;;;;21.78;100.00;96522.13;5040954;28;20234;-65
2023/07/19 05:10:02;;;;;;;8.57;7.88;;;;;;;21.86;100.00;96529.94;5040982;28;20226;-64
2023/07/19 05:12:29;;;;;;;8.00;7.28;;;;;;;21.93;100.00;96529.94;5041266;28;20207;-68
2023/07/19 05:14:56;;;;;;;8.00;7.30;;;;;;;22.00;100.00;96520.75;5042066;28;20227;-64
2023/07/19 05:17:22;;;;;;;10.60;8.10;;;;;;;22.03;100.00;96531.13;5044676;28;20245;-64
2023/07/19 05:19:48;;;;;;;9.50;8.45;;;;;;;22.09;100.00;96538.31;5044724;28;20637;-66
2023/07/19 05:22:15;;;;;;;8.73;7.90;;;;;;;22.12;100.00;96548.66;5046296;28;20215;-66
2023/07/19 05:24:43;;;;;;;9.38;7.93;;;;;;;22.18;100.00;96545.09;5045618;28;20203;-67
2023/07/19 05:27:15;;;;;;;8.38;7.57;;;;;;;22.26;100.00;96546.69;5045398;28;20343;-67
2023/07/19 05:29:41;;;;;;;8.65;7.80;;;;;;;22.37;100.00;96547.84;5044565;28;20308;-67
2023/07/19 05:32:08;;;;;;;9.20;8.20;;;;;;;22.46;100.00;96560.03;5044990;28;20207;-65
2023/07/19 05:34:35;;;;;;;8.25;7.60;;;;;;;22.50;100.00;96570.13;5044122;28;20648;-64
2023/07/19 05:37:03;;;;;;;8.50;7.50;;;;;;;22.56;100.00;96565.75;5045184;28;20215;-65
2023/07/19 05:39:30;;;;;;;7.90;7.10;;;;;;;22.57;100.00;96565.50;5045220;28;20554;-66
2023/07/19 05:41:58;;;;;;;7.68;7.05;;;;;;;22.64;100.00;96568.97;5044825;28;20203;-65
2023/07/19 05:44:24;;;;;;;7.70;6.95;;;;;;;22.70;100.00;96565.47;5045309;28;20538;-66
2023/07/19 05:46:52;;;;;;;7.03;6.38;;;;;;;22.74;100.00;96565.84;5045638;28;20615;-66
2023/07/19 05:49:19;;;;;;;6.80;6.20;;;;;;;22.79;100.00;96558.72;5046714;28;20250;-64
2023/07/19 05:51:46;;;;;;;6.82;6.30;;;;;;;22.86;100.00;96563.22;5046794;28;20637;-68
2023/07/19 05:54:14;;;;;;;8.57;6.38;;;;;;;22.89;100.00;96565.47;5046938;28;20211;-66
2023/07/19 05:56:40;;;;;;;7.00;6.30;;;;;;;23.07;100.00;96554.72;5046787;28;20226;-65
2023/07/19 05:59:08;;;;;;;6.88;5.85;;;;;;;23.26;100.00;96561.78;5046067;28;20212;-68
2023/07/19 06:01:35;;;;;;;6.47;5.88;;;;;;;23.48;100.00;96559.50;5046329;28;20572;-65
2023/07/19 06:04:02;;;;;;;6.78;6.07;;;;;;;23.63;100.00;96549.94;5047336;28;20226;-65
2023/07/19 06:06:28;;;;;;;6.10;5.60;;;;;;;23.79;100.00;96554.75;5045142;28;20223;-70
2023/07/19 06:08:55;;;;;;;6.05;5.43;;;;;;;24.00;100.00;96564.22;5045713;28;20223;-65
2023/07/19 06:11:21;;;;;;;6.32;5.70;;;;;;;24.17;100.00;96562.56;5045392;28;21060;-65
2023/07/19 06:13:48;;;;;;;5.90;5.40;;;;;;;24.38;100.00;96572.00;5044020;28;20215;-66
2023/07/19 06:16:16;;;;;;;6.68;5.15;;;;;;;24.58;100.00;96567.13;5046931;28;20231;-66
2023/07/19 06:18:44;;;;;;;6.55;5.22;;;;;;;24.76;100.00;96582.44;5046291;28;20212;-66
2023/07/19 06:21:10;;;;;;;9.25;6.18;;;;;;;24.79;100.00;96590.09;5045115;28;20208;-64
2023/07/19 06:23:36;;;;;;;6.07;5.38;;;;;;;24.91;100.00;96595.53;5044066;28;20239;-67
2023/07/19 06:26:03;;;;;;;6.32;5.78;;;;;;;24.98;100.00;96601.63;5043681;28;20203;-66
2023/07/19 06:28:30;;;;;;;6.03;5.43;;;;;;;25.05;100.00;96602.34;5044151;28;20621;-68
2023/07/19 06:30:58;;;;;;;5.85;5.30;;;;;;;25.00;100.00;96596.84;5045006;28;20205;-64
2023/07/19 06:33:29;;;;;;;6.55;5.07;;;;;;;24.89;100.00;96597.66;5046523;28;20208;-64
2023/07/19 06:35:56;;;;;;;8.55;5.30;;;;;;;24.80;99.44;96602.53;5048783;28;20227;-65
2023/07/19 06:38:23;;;;;;;5.70;5.20;;;;;;;24.91;100.00;96604.47;5054217;28;20207;-66
2023/07/19 06:40:50;;;;;;;6.07;5.47;;;;;;;25.06;100.00;96604.00;5045181;28;20204;-64
2023/07/19 06:43:17;;;;;;;5.78;5.28;;;;;;;25.28;100.00;96602.38;5044497;28;20207;-68
2023/07/19 06:45:47;;;;;;;6.40;4.75;;;;;;;25.49;99.39;96598.22;5044968;28;20266;-65
2023/07/19 06:48:13;;;;;;;5.45;4.95;;;;;;;25.64;96.07;96596.72;5045465;28;20295;-65
2023/07/19 06:50:42;;;;;;;5.95;5.28;;;;;;;25.73;90.75;96600.69;5044201;28;20359;-63
2023/07/19 06:53:08;;;;;;;5.93;5.40;;;;;;;25.94;89.91;96609.22;5045321;28;20204;-64
2023/07/19 06:55:35;;;;;;;5.57;5.03;;;;;;;25.84;90.62;96596.28;5045000;28;20204;-64
2023/07/19 06:58:01;;;;;;;5.35;4.82;;;;;;;25.92;90.01;96598.63;5045240;28;20633;-66
2023/07/19 07:00:28;;;;;;;5.18;4.68;;;;;;;26.01;89.75;96605.31;5044074;28;20551;-66
2023/07/19 07:02:54;;;;;;;6.47;5.35;;;;;;;25.97;90.08;96603.34;5045058;28;20519;-69
2023/07/19 07:05:21;;;;;;;5.35;4.70;;;;;;;25.57;87.61;96604.16;5044564;28;20200;-64
2023/07/19 07:07:49;;;;;;;5.60;5.00;;;;;;;25.53;91.20;96600.25;5044037;28;20532;-65
2023/07/19 07:10:19;;;;;;;7.65;5.00;;;;;;;25.41;92.00;96577.75;5043763;28;20227;-65
2023/07/19 07:12:48;;;;;;;4.97;4.57;;;;;;;25.52;91.21;96582.34;5043917;28;20196;-64
2023/07/19 07:15:15;;;;;;;6.10;5.50;;;;;;;25.78;91.44;96585.59;5043807;28;20515;-66
2023/07/19 07:17:43;;;;;;;6.15;4.82;;;;;;;25.55;86.15;96587.28;5043728;28;20199;-63
2023/07/19 07:20:11;;;;;;;6.85;5.20;;;;;;;25.36;86.85;96585.78;5044135;28;20198;-65
2023/07/19 07:22:37;;;;;;;6.00;5.50;;;;;;;25.24;89.25;96590.34;5043229;28;20207;-66
2023/07/19 07:25:06;;;;;;;5.90;5.40;;;;;;;25.15;90.43;96589.09;5043595;28;20305;-65
2023/07/19 07:27:33;;;;;;;6.65;5.55;;;;;;;24.99;90.40;96587.88;5049239;28;20196;-71
2023/07/19 07:30:01;;;;;;;5.20;4.63;;;;;;;24.98;91.67;96588.94;5055330;28;20223;-72
2023/07/19 07:32:27;;;;;;;5.68;5.00;;;;;;;25.02;94.26;96586.59;5050688;28;20208;-66
2023/07/19 07:34:54;;;;;;;5.53;5.03;;;;;;;24.91;94.81;96574.69;5044452;28;20227;-65
2023/07/19 07:37:20;;;;;;;6.22;5.60;;;;;;;24.93;91.91;96577.19;5042992;28;20203;-65
2023/07/19 07:39:47;;;;;;;5.20;4.80;;;;;;;25.05;92.94;96576.13;5043933;28;20207;-65
2023/07/19 07:42:15;;;;;;;5.10;4.70;;;;;;;25.20;91.94;96567.53;5043006;28;20261;-65
2023/07/19 07:44:42;;;;;;;5.55;4.95;;;;;;;25.28;92.26;96561.75;5042778;28;20199;-65
2023/07/19 07:47:09;;;;;;;5.40;4.82;;;;;;;25.44;91.97;96555.59;5042863;28;20218;-66
2023/07/19 07:49:36;;;;;;;6.80;5.00;;;;;;;25.77;90.21;96556.84;5043990;28;20230;-64
2023/07/19 07:52:04;;;;;;;5.40;4.90;;;;;;;26.08;89.90;96549.06;5043645;28;20543;-63
2023/07/19 07:54:30;;;;;;;6.55;4.60;;;;;;;26.07;88.12;96542.03;5043569;28;20253;-64
2023/07/19 07:56:57;;;;;;;5.40;4.78;;;;;;;26.02;89.64;96541.09;5043093;28;20212;-63
2023/07/19 07:59:25;;;;;;;5.65;5.05;;;;;;;25.93;84.30;96529.84;5043062;28;20203;-64
2023/07/19 08:01:51;;;;;;;7.10;5.05;;;;;;;25.86;84.20;96528.34;5042467;28;20642;-64
2023/07/19 08:04:18;;;;;;;5.78;4.70;;;;;;;26.12;85.45;96522.31;5043282;28;20264;-67
2023/07/19 08:06:44;;;;;;;5.70;5.10;;;;;;;26.29;84.81;96523.19;5042284;28;20213;-66
2023/07/19 08:09:11;;;;;;;7.70;5.07;;;;;;;26.44;82.23;96519.91;5042237;28;20199;-66
2023/07/19 08:11:38;;;;;;;7.28;5.07;;;;;;;26.69;80.14;96523.88;5042576;28;20215;-64
2023/07/19 08:14:05;;;;;;;5.75;5.25;;;;;;;26.95;79.87;96521.59;5042416;28;20294;-65
2023/07/19 08:16:33;;;;;;;5.18;4.68;;;;;;;27.03;77.79;96529.31;5042003;28;20223;-63
2023/07/19 08:18:59;;;;;;;5.53;5.07;;;;;;;27.28;79.33;96524.22;5042908;28;20211;-64
2023/07/19 08:21:26;;;;;;;6.20;5.10;;;;;;;27.45;78.13;96522.31;5041718;28;20195;-67
2023/07/19 08:23:55;;;;;;;5.32;4.82;;;;;;;27.39;77.89;96506.97;5041809;28;20211;-66
2023/07/19 08:26:22;;;;;;;7.88;5.00;;;;;;;27.33;77.65;96521.56;5042186;28;20238;-65
2023/07/19 08:28:48;;;;;;;7.20;4.90;;;;;;;27.34;77.27;96506.94;5041236;28;20211;-64
2023/07/19 08:31:16;;;;;;;6.95;5.20;;;;;;;27.34;72.23;96515.09;5042090;28;20282;-65
2023/07/19 08:33:43;;;;;;;6.45;4.78;;;;;;;27.21;73.71;96508.09;5041539;28;20206;-65
2023/07/19 08:36:10;;;;;;;7.90;5.40;;;;;;;27.44;74.35;96511.66;5043074;28;20206;-66
2023/07/19 08:38:37;;;;;;;5.80;5.22;;;;;;;27.39;74.54;96508.88;5042153;28;20207;-63
2023/07/19 08:41:05;;;;;;;5.40;4.88;;;;;;;27.21;73.58;96504.56;5041828;28;20191;-65
2023/07/19 08:43:34;;;;;;;5.40;4.90;;;;;;;27.15;74.69;96505.56;5041937;28;20228;-64
2023/07/19 08:46:00;;;;;;;5.22;4.72;;;;;;;26.90;74.12;96503.31;5041621;28;20218;-64
2023/07/19 08:48:29;;;;;;;5.53;5.03;;;;;;;26.85;78.53;96492.41;5041717;28;20203;-67
2023/07/19 08:50:59;;;;;;;5.68;4.85;;;;;;;26.87;76.46;96500.28;5040968;28;20216;-64
2023/07/19 08:53:27;;;;;;;6.32;4.82;;;;;;;26.72;75.20;96490.81;5041966;28;20199;-64
2023/07/19 08:55:54;;;;;;;5.13;4.57;;;;;;;26.58;77.25;96494.94;5041091;28;20212;-66
2023/07/19 08:58:21;;;;;;;5.57;5.10;;;;;;;26.64;76.96;96485.78;5040856;28;20307;-64
2023/07/19 09:00:49;;;;;;;7.28;5.18;;;;;;;26.66;76.27;96489.09;5041151;28;20549;-63
2023/07/19 09:03:15;;;;;;;5.63;5.10;;;;;;;26.71;77.11;96483.72;5040680;28;20215;-65
2023/07/19 09:05:42;;;;;;;6.50;4.95;;;;;;;26.64;75.74;96488.50;5040434;28;20593;-65
2023/07/19 09:08:10;;;;;;;6.60;5.43;;;;;;;26.49;77.34;96493.72;5041251;28;20199;-63
2023/07/19 09:10:37;;;;;;;5.85;5.13;;;;;;;26.45;80.04;96489.84;5041273;28;20230;-63
2023/07/19 09:13:05;;;;;;;5.68;4.95;;;;;;;26.35;81.20;96495.09;5041187;28;20705;-64
2023/07/19 09:15:32;;;;;;;5.40;4.90;;;;;;;26.29;81.47;96498.78;5041442;28;20258;-65
2023/07/19 09:17:58;;;;;;;5.72;5.00;;;;;;;26.31;81.98;96491.25;5041386;28;20208;-72
2023/07/19 09:20:27;;;;;;;5.50;5.00;;;;;;;26.25;81.04;96489.50;5040924;28;20577;-64
2023/07/19 09:22:57;;;;;;;5.50;5.00;;;;;;;26.20;79.58;96497.56;5041564;28;20205;-63
2023/07/19 09:25:25;;;;;;;5.47;4.97;;;;;;;26.36;80.26;96504.88;5041143;28;20616;-63
2023/07/19 09:27:53;;;;;;;6.13;4.63;;;;;;;26.48;79.14;96499.38;5040515;28;20290;-66
2023/07/19 09:30:19;;;;;;;5.72;5.13;;;;;;;26.37;78.87;96498.38;5041186;28;20293;-65
2023/07/19 09:32:58;;;;;;;5.63;5.10;;;;;;;26.29;79.14;96490.66;5041964;28;20230;-65
2023/07/19 09:35:27;;;;;;;5.72;5.22;;;;;;;26.26;81.84;96499.28;5058458;28;20226;-66
2023/07/19 09:37:54;;;;;;;5.57;5.07;;;;;;;26.22;82.02;96489.97;5061970;28;20196;-67
2023/07/19 09:40:21;;;;;;;5.80;5.22;;;;;;;26.36;82.36;96496.72;5055815;28;20199;-63
2023/07/19 09:42:50;;;;;;;5.60;5.10;;;;;;;26.51;82.62;96488.84;5045185;28;20218;-66
2023/07/19 09:45:17;;;;;;;5.57;5.07;;;;;;;26.77;81.21;96490.06;5044820;28;20203;-64
2023/07/19 09:47:45;;;;;;;7.30;5.47;;;;;;;26.85;78.72;96488.88;5043562;28;20204;-64
2023/07/19 09:50:12;;;;;;;5.82;5.22;;;;;;;26.77;78.87;96483.81;5043272;28;20680;-63
2023/07/19 09:52:40;;;;;;;5.80;5.30;;;;;;;26.68;78.62;96488.84;5044206;28;20253;-63
2023/07/19 09:55:07;;;;;;;7.32;5.30;;;;;;;26.53;77.81;96481.31;5043146;28;20706;-66
2023/07/19 09:57:34;;;;;;;8.10;5.53;;;;;;;26.45;79.24;96487.13;5043932;28;20223;-71
2023/07/19 10:00:03;;;;;;;7.38;6.03;;;;;;;26.33;77.39;96489.09;5042993;28;20235;-69
2023/07/19 10:02:30;;;;;;;5.60;5.10;;;;;;;26.24;78.82;96493.28;5045538;28;20213;-69
2023/07/19 10:04:57;;;;;;;6.45;5.53;;;;;;;26.20;80.13;96486.72;5047234;28;20644;-67
2023/07/19 10:07:26;;;;;;;4.95;4.53;;;;;;;26.14;80.80;96490.38;5046139;28;20214;-66
2023/07/19 10:10:01;;;;;;;8.35;5.40;;;;;;;26.03;80.57;96497.50;5046128;28;20223;-64
2023/07/19 10:12:27;;;;;;;5.95;5.13;;;;;;;25.97;81.42;96493.03;5046375;28;20210;-66
2023/07/19 10:14:55;;;;;;;5.90;5.30;;;;;;;25.93;83.42;96486.47;5044867;28;20200;-63
2023/07/19 10:17:23;;;;;;;5.80;5.30;;;;;;;25.97;82.26;96478.69;5048163;28;20243;-67
2023/07/19 10:20:06;;;;;;;6.05;5.32;;;;;;;25.94;81.99;96487.28;5053778;28;20326;-64
2023/07/19 10:22:50;;;;;;;6.35;5.57;;;;;;;25.98;83.86;96488.44;5048572;28;20199;-62
2023/07/19 10:25:22;;;;;;;7.00;5.40;;;;;;;25.90;80.64;96486.94;5045839;28;20207;-65
2023/07/19 10:27:56;;;;;;;7.63;5.45;;;;;;;25.85;77.83;96494.16;5044923;28;20294;-63
2023/07/19 10:30:22;;;;;;;5.70;5.20;;;;;;;25.90;79.50;96491.56;5044465;28;20218;-63
2023/07/19 10:32:51;;;;;;;5.45;5.05;;;;;;;25.97;81.01;96484.09;5044955;28;20665;-63
2023/07/19 10:35:34;;;;;;;5.65;5.15;;;;;;;26.17;82.35;96488.03;5046191;28;20275;-66
2023/07/19 10:38:01;;;;;;;6.68;4.85;;;;;;;26.36;82.39;96480.47;5049998;28;20253;-63
2023/07/19 10:40:30;;;;;;;5.47;4.95;;;;;;;26.47;80.91;96482.28;5048962;28;20214;-64
2023/07/19 10:42:57;;;;;;;5.10;4.70;;;;;;;26.55;82.04;96473.72;5044369;28;20220;-64
2023/07/19 10:45:25;;;;;;;5.95;4.80;;;;;;;26.52;80.13;96482.38;5046596;28;20211;-65
2023/07/19 10:47:54;;;;;;;5.60;4.95;;;;;;;26.53;78.13;96481.31;5044427;28;20628;-63
2023/07/19 10:50:25;;;;;;;5.38;4.88;;;;;;;26.53;78.02;96470.47;5044916;28;20670;-64
2023/07/19 10:52:51;;;;;;;5.68;5.13;;;;;;;26.48;77.73;96473.06;5044644;28;20199;-63
2023/07/19 10:55:18;;;;;;;7.10;4.82;;;;;;;26.40;74.31;96475.38;5044997;28;20293;-65
2023/07/19 10:57:44;;;;;;;5.60;4.60;;;;;;;26.33;75.27;96470.09;5044368;28;20218;-66
2023/07/19 11:00:13;;;;;;;5.47;5.05;;;;;;;26.60;76.93;96465.69;5044883;28;20206;-63
2023/07/19 11:02:39;;;;;;;5.50;5.00;;;;;;;26.99;77.08;96455.69;5044261;28;20304;-63
2023/07/19 11:05:09;;;;;;;5.93;5.03;;;;;;;27.38;74.33;96459.19;5044189;28;20211;-67
2023/07/19 11:07:36;;;;;;;7.63;4.85;;;;;;;27.67;69.18;96455.19;5043618;28;20200;-68
2023/07/19 11:10:03;;;;;;;6.53;4.95;;;;;;;28.00;68.51;96446.03;5046987;28;20203;-64
2023/07/19 11:12:30;;;;;;;5.28;4.75;;;;;;;28.18;68.80;96442.13;5045362;28;20206;-68
2023/07/19 11:15:00;;;;;;;4.97;4.55;;;;;;;28.22;66.78;96439.72;5043796;28;20234;-65
2023/07/19 11:17:28;;;;;;;6.57;4.80;;;;;;;28.33;68.06;96436.84;5043601;28;20282;-65
2023/07/19 11:19:54;;;;;;;5.32;4.60;;;;;;;28.12;67.89;96435.03;5043491;28;20660;-64
2023/07/19 11:22:23;;;;;;;4.65;4.15;;;;;;;28.10;65.72;96431.72;5044079;28;20282;-65
2023/07/19 11:24:53;;;;;;;5.30;4.47;;;;;;;28.16;65.71;96433.44;5044297;28;20225;-64
2023/07/19 11:27:20;;;;;;;4.63;4.22;;;;;;;28.41;63.84;96439.06;5044397;28;20196;-64
2023/07/19 11:29:52;;;;;;;4.78;4.00;;;;;;;28.62;62.50;96440.06;5043181;28;20257;-64